• Join FlightAware (Why Join?)
  • Login
  • US Flag 
08:52PM EST


 

Airport Tracker/Info


-or-


 

Live Flight TrackerFlight Track Log ✈ TRS308 ✈ 01-May-2013 ✈ KGRR - KBWI

Flight Track Log - Related Links

Times and Time Zones

All times are in EDT time to prevent confusion due to time zone crossing. See the TRS308 flight status page for this flight to view local times or setup timezone preferences in your user account.

Time Position Orientation Groundspeed Altitude Reporting Facility
EDT Latitude Longitude Course Direction KTS MPH feet Rate Location/Type
05:55AM 42.8364 -85.4758 127° Southeast 213 245 2,800  Level Chicago Center
05:56AM 42.7958 -85.4031 127° Southeast 235 270 4,100 1,920 Climbing Chicago Center
05:57AM 42.7508 -85.3181 126° Southeast 267 307 6,700 2,520 Climbing Chicago Center
05:58AM 42.7061 -85.2322 125° Southeast 276 318 9,200 1,800 Climbing Chicago Center
05:59AM 42.6614 -85.1381 123° Southeast 292 336 10,400 1,320 Climbing Chicago Center
06:00AM 42.6186 -85.0167 116° Southeast 349 402 12,000 1,800 Climbing Chicago Center
06:01AM 42.5747 -84.8931 116° Southeast 362 417 14,100 1,860 Climbing Chicago Center
06:02AM 42.5300 -84.7658 115° Southeast 373 429 15,800 1,860 Climbing Chicago Center
06:03AM 42.4747 -84.6233 118° Southeast 374 430 17,800 1,800 Climbing Cleveland Center
06:04AM 42.4231 -84.4906 118° Southeast 380 437 19,300 1,800 Climbing Cleveland Center
06:05AM 42.3714 -84.3467 116° Southeast 400 460 21,500 1,800 Climbing Cleveland Center
06:06AM 42.3219 -84.2033 115° Southeast 411 473 22,900 1,320 Climbing Cleveland Center
06:07AM 42.2681 -84.0542 116° Southeast 424 488 24,200 1,320 Climbing Cleveland Center
06:08AM 42.2119 -83.9056 117° Southeast 436 502 25,600 1,200 Climbing Cleveland Center
06:09AM 42.1539 -83.7539 117° Southeast 443 510 26,700 1,080 Climbing Cleveland Center
06:10AM 42.0956 -83.5969 117° Southeast 449 517 27,800 1,260 Climbing Cleveland Center
06:11AM 42.0369 -83.4378 116° Southeast 463 533 29,300 1,500 Climbing Cleveland Center
06:12AM 41.9633 -83.3003 126° Southeast 463 533 30,900 1,260 Climbing Cleveland Center
06:13AM 41.8914 -83.1606 125° Southeast 463 533 31,900 1,020 Climbing Cleveland Center
06:14AM 41.8172 -83.0211 125° Southeast 458 527 33,000 1,020 Climbing Cleveland Center
06:15AM 41.7450 -82.8875 126° Southeast 458 527 34,000 900 Climbing Cleveland Center
06:16AM 41.6725 -82.7514 125° Southeast 458 527 34,900 480 Climbing Cleveland Center
06:17AM 41.6081 -82.6300 125° Southeast 446 513 35,000  Climbing Cleveland Center
06:18AM 41.5375 -82.4972 125° Southeast 446 513 35,000  Level Cleveland Center
06:19AM 41.4644 -82.3647 126° Southeast 446 513 35,000  Level Cleveland Center
06:20AM 41.3917 -82.2272 125° Southeast 446 513 35,000  Level Cleveland Center
06:21AM 41.2975 -82.1006 135° Southeast 441 507 35,000  Level Cleveland Center
06:22AM 41.2008 -81.9989 142° Southeast 441 507 35,000  Level Cleveland Center
06:23AM 41.0997 -81.9031 144° Southeast 446 513 35,000  Level Cleveland Center
06:24AM 41.0008 -81.8019 142° Southeast 451 519 35,000  Level Cleveland Center
06:25AM 40.9017 -81.7011 142° Southeast 451 519 35,000  Level Cleveland Center
06:26AM 40.8028 -81.6008 142° Southeast 451 519 35,000  Level Cleveland Center
06:27AM 40.7056 -81.5006 142° Southeast 457 526 35,000  Level Cleveland Center
06:28AM 40.6061 -81.4008 143° Southeast 457 526 35,000  Level Cleveland Center
06:29AM 40.5025 -81.3150 148° Southeast 452 520 35,000  Level Cleveland Center
06:30AM 40.3861 -81.2536 158° South 446 513 35,000  Level Cleveland Center
06:31AM 40.2719 -81.1925 158° South 451 519 35,000  Level Cleveland Center
06:32AM 40.1533 -81.1317 159° South 457 526 35,000  Level Cleveland Center
06:33AM 40.0369 -81.0711 158° South 457 526 35,000 -480 Level Cleveland Center
06:34AM 39.9519 -80.9622 136° Southeast 433 498 34,100 -960 Descending Cleveland Center
06:35AM 39.9253 -80.7997 102° East 409 471 33,100 -600 Descending Cleveland Center
06:36AM 39.9044 -80.6425 100° East 420 483 33,000 -60 Descending Cleveland Center
06:37AM 39.8817 -80.4831 100° East 433 498 33,000  Level Cleveland Center
06:38AM 39.8564 -80.3261 102° East 439 505 33,000 -120 Level Cleveland Center
06:41AM 39.8014 -79.9536 101° East 433 498 32,700 -120 Descending Washington Center
06:42AM 39.7758 -79.7925 102° East 433 498 32,600 -120 Descending Washington Center
06:43AM 39.7500 -79.6344 102° East 438 504 32,500 -480 Descending Washington Center
06:44AM 39.7261 -79.4739 101° East 438 504 31,700 -1,920 Descending Washington Center
06:45AM 39.7000 -79.3133 102° East 443 510 28,800 -2,760 Descending Washington Center
06:46AM 39.6756 -79.1558 101° East 448 516 26,100 -2,160 Descending Washington Center
06:47AM 39.6425 -79.0006 105° East 448 516 24,500 -1,440 Descending Washington Center
06:48AM 39.6056 -78.8317 106° East 454 522 23,300 -1,200 Descending Washington Center
06:49AM 39.5719 -78.6822 106° East 441 507 22,200 -1,200 Descending Washington Center
06:50AM 39.5400 -78.5408 106° East 422 486 21,000 -1,500 Descending Washington Center
06:51AM 39.5119 -78.4133 106° East 398 458 19,200 -1,740 Descending Washington Center
06:52AM 39.4856 -78.2939 106° East 374 430 17,500 -1,680 Descending Washington Center
06:53AM 39.4608 -78.1775 105° East 342 394 15,800 -1,260 Descending Washington Center
06:54AM 39.4322 -78.0528 107° East 342 394 15,000 -480 Descending Washington Center
06:55AM 39.4328 -77.9239 90° East 347 399 14,900 -120 Descending Washington Center
06:56AM 39.4353 -77.7922 89° East 357 411 14,800 -180 Descending Washington Center
06:57AM 39.4375 -77.6633 89° East 357 411 14,600 -1,140 Descending Washington Center
06:58AM 39.4417 -77.5400 87° East 357 411 12,600 -1,680 Descending Washington Center
06:59AM 39.4436 -77.4217 89° East 345 397 11,300 -1,080 Descending Washington Center
06:59AM 39.4500 -77.3500 83° East 288 331 11,000 -360 Descending Potomac TRACON
07:00AM 39.4667 -77.2500 78° East 285 328 10,800 -1,020 Descending Potomac TRACON
07:01AM 39.4667 -77.1500 90° East 279 321 9,000 -1,800 Descending Potomac TRACON
07:02AM 39.4833 -77.0500 78° East 273 314 7,200 -1,800 Descending Potomac TRACON
07:03AM 39.5000 -76.9667 75° East 266 306 5,600 -1,620 Descending Potomac TRACON
07:04AM 39.4333 -76.9333 159° South 266 306 4,100 -840 Descending Potomac TRACON
07:05AM 39.3667 -76.9333 180° South 264 304 4,000 -480 Descending Potomac TRACON
07:06AM 39.3000 -76.9000 159° South 259 298 3,200 -840 Descending Potomac TRACON
07:07AM 39.2333 -76.8500 150° Southeast 246 283 2,500 -720 Descending Potomac TRACON
07:08AM 39.2000 -76.8000 131° Southeast 191 220 1,800 -600 Descending Potomac TRACON
07:09AM 39.1833 -76.7667 123° Southeast 132 152 1,400 -540 Descending Potomac TRACON
07:10AM 39.1833 -76.7333 90° East 119 137 800 -600 Descending Potomac TRACON
07:12AM 39.1667 -76.6667 142° Southeast  Level FlightAware Approximate